Time;durP1;ratioP1;P1;durP2;ratioP2;P2;SDS_P1;SDS_P2;PMS_P1;PMS_P2;Temp;Humidity;BMP_temperature;BMP_pressure;BME280_temperature;BME280_humidity;BME280_pressure;Samples;Min_cycle;Max_cycle;Signal;HPM_P1;HPM_P2
2023/08/19 00:01:40;;;;;;;3.33;2.33;;;25.40;62.60;;;;;;5000743;28;20227;-84
2023/08/19 00:04:07;;;;;;;2.50;2.08;;;25.40;62.60;;;;;;5000173;28;20243;-84
2023/08/19 00:06:40;;;;;;;2.50;2.30;;;25.40;62.60;;;;;;5000509;28;20204;-83
2023/08/19 00:09:08;;;;;;;2.30;2.10;;;25.30;62.50;;;;;;5000323;28;20655;-84
2023/08/19 00:11:36;;;;;;;2.78;2.50;;;25.30;62.60;;;;;;5000019;28;20216;-84
2023/08/19 00:14:04;;;;;;;2.88;2.40;;;25.30;62.60;;;;;;5001338;28;20212;-84
2023/08/19 00:16:31;;;;;;;2.85;2.40;;;25.30;62.60;;;;;;5000015;28;20211;-84
2023/08/19 00:18:58;;;;;;;3.20;2.28;;;25.30;62.60;;;;;;4999624;28;20208;-83
2023/08/19 00:21:25;;;;;;;2.90;2.25;;;25.30;62.60;;;;;;4997013;28;20686;-83
2023/08/19 00:23:54;;;;;;;3.05;2.00;;;25.30;62.60;;;;;;4996694;28;20223;-83
2023/08/19 00:26:21;;;;;;;3.92;2.15;;;25.30;62.60;;;;;;4997327;28;20235;-83
2023/08/19 00:28:48;;;;;;;3.80;2.40;;;25.20;62.60;;;;;;4996892;28;20236;-83
2023/08/19 00:31:15;;;;;;;2.80;2.40;;;25.30;62.60;;;;;;4996870;28;20224;-83
2023/08/19 00:33:42;;;;;;;2.38;2.17;;;25.20;62.60;;;;;;4996925;28;20243;-83
2023/08/19 00:36:09;;;;;;;2.28;2.08;;;25.30;62.70;;;;;;4997190;28;20250;-83
2023/08/19 00:38:36;;;;;;;2.30;2.10;;;25.20;62.70;;;;;;4997306;28;20196;-82
2023/08/19 00:41:05;;;;;;;3.53;2.15;;;25.20;62.60;;;;;;4981716;28;20220;-83
2023/08/19 00:43:32;;;;;;;3.40;2.30;;;25.20;62.70;;;;;;4996856;28;20205;-83
2023/08/19 00:45:59;;;;;;;2.67;2.47;;;25.20;62.70;;;;;;4981594;28;20263;-83
2023/08/19 00:48:26;;;;;;;3.83;2.28;;;25.20;62.70;;;;;;4996738;28;20251;-83
2023/08/19 00:50:53;;;;;;;2.58;2.30;;;25.20;62.60;;;;;;4997214;28;20220;-83
2023/08/19 00:53:20;;;;;;;2.60;2.30;;;25.10;62.70;;;;;;4979988;28;20311;-83
2023/08/19 00:55:47;;;;;;;2.40;2.20;;;25.10;62.60;;;;;;4997770;28;20251;-83
2023/08/19 00:58:16;;;;;;;3.15;2.28;;;25.10;62.60;;;;;;4998375;28;20668;-83
2023/08/19 01:00:43;;;;;;;2.97;2.08;;;25.10;62.70;;;;;;4997531;28;20221;-83
2023/08/19 01:03:10;;;;;;;3.70;2.30;;;25.10;62.80;;;;;;4997919;28;20197;-83
2023/08/19 01:05:42;;;;;;;2.50;2.30;;;25.10;62.70;;;;;;4997211;28;20204;-83
2023/08/19 01:08:09;;;;;;;2.97;2.40;;;25.10;62.80;;;;;;4997470;28;20559;-83
2023/08/19 01:10:37;;;;;;;3.28;2.33;;;25.10;62.80;;;;;;5000645;28;20221;-83
2023/08/19 01:13:09;;;;;;;2.63;2.40;;;25.10;62.70;;;;;;5000829;28;20223;-83
2023/08/19 01:15:40;;;;;;;3.40;2.45;;;25.10;62.70;;;;;;5001164;28;20206;-83
2023/08/19 01:18:08;;;;;;;3.38;2.40;;;25.00;62.70;;;;;;5001975;28;20193;-83
2023/08/19 01:20:35;;;;;;;3.50;2.47;;;25.10;62.80;;;;;;5000355;28;20342;-83
2023/08/19 01:23:04;;;;;;;2.60;2.30;;;25.00;62.80;;;;;;5001751;28;20211;-83
2023/08/19 01:25:33;;;;;;;2.67;2.25;;;25.00;62.80;;;;;;5001725;28;20291;-83
2023/08/19 01:28:03;;;;;;;2.88;2.45;;;25.00;62.80;;;;;;4999834;28;20201;-83
2023/08/19 01:30:30;;;;;;;2.67;2.30;;;25.00;62.80;;;;;;5000368;28;20235;-84
2023/08/19 01:32:58;;;;;;;2.83;2.53;;;25.00;62.80;;;;;;4999689;28;20192;-83
2023/08/19 01:35:25;;;;;;;3.47;2.15;;;24.90;62.80;;;;;;4999950;28;20216;-83
2023/08/19 01:37:55;;;;;;;3.63;2.60;;;25.00;62.90;;;;;;5001261;28;20243;-83
2023/08/19 01:40:22;;;;;;;3.55;2.30;;;24.90;62.80;;;;;;5000661;28;20219;-84
2023/08/19 01:42:51;;;;;;;2.47;2.28;;;24.90;62.80;;;;;;4999986;28;20204;-83
2023/08/19 01:45:18;;;;;;;2.67;2.40;;;24.90;62.80;;;;;;4999802;28;20204;-83
2023/08/19 01:47:45;;;;;;;3.00;2.25;;;24.90;62.70;;;;;;4999864;28;20215;-83
2023/08/19 01:50:12;;;;;;;3.40;2.55;;;24.90;62.90;;;;;;4999907;28;20275;-83
2023/08/19 01:52:39;;;;;;;3.00;2.70;;;24.90;62.80;;;;;;4999557;28;20196;-83
2023/08/19 01:55:07;;;;;;;2.60;2.40;;;24.90;62.90;;;;;;4999974;28;20589;-83
2023/08/19 01:57:34;;;;;;;3.22;2.30;;;24.90;62.80;;;;;;4999020;28;20203;-83
2023/08/19 02:00:03;;;;;;;3.00;2.50;;;24.90;62.90;;;;;;4999835;28;20201;-84
2023/08/19 02:02:41;;;;;;;3.85;2.60;;;24.90;62.80;;;;;;5017037;28;20184;-83
2023/08/19 02:05:12;;;;;;;5.20;2.67;;;24.90;62.90;;;;;;4999332;28;20200;-83
2023/08/19 02:07:39;;;;;;;2.75;2.55;;;24.80;62.70;;;;;;4998773;28;20204;-83
2023/08/19 02:10:07;;;;;;;2.92;2.40;;;24.90;62.80;;;;;;4998971;28;20201;-84
2023/08/19 02:12:34;;;;;;;2.75;2.55;;;24.80;62.70;;;;;;5016804;28;20593;-83
2023/08/19 02:15:05;;;;;;;2.80;2.60;;;24.80;62.80;;;;;;4999464;28;20227;-83
2023/08/19 02:17:32;;;;;;;2.72;2.53;;;24.80;62.80;;;;;;4998915;28;20204;-83
2023/08/19 02:19:59;;;;;;;3.28;2.90;;;24.80;62.80;;;;;;4998248;28;20200;-84
2023/08/19 02:22:26;;;;;;;3.78;2.60;;;24.80;62.70;;;;;;4983977;28;20255;-83
2023/08/19 02:24:53;;;;;;;3.85;2.70;;;24.70;62.80;;;;;;4998649;28;20203;-83
2023/08/19 02:27:20;;;;;;;3.22;2.50;;;24.70;62.90;;;;;;4998775;28;20670;-83
2023/08/19 02:29:47;;;;;;;3.70;2.60;;;24.70;62.90;;;;;;4998316;28;20208;-83
2023/08/19 02:32:16;;;;;;;3.08;2.75;;;24.70;62.90;;;;;;4998300;28;20228;-83
2023/08/19 02:34:43;;;;;;;3.42;2.60;;;24.70;62.80;;;;;;4983039;28;20220;-83
2023/08/19 02:37:13;;;;;;;2.88;2.53;;;24.70;62.80;;;;;;4998352;28;20200;-83
2023/08/19 02:39:40;;;;;;;3.08;2.75;;;24.70;62.80;;;;;;4998495;28;20219;-83
2023/08/19 02:42:08;;;;;;;3.05;2.72;;;24.70;62.90;;;;;;4998365;28;20267;-83
2023/08/19 02:44:36;;;;;;;3.90;2.78;;;24.70;62.90;;;;;;4997947;28;20759;-83
2023/08/19 02:47:02;;;;;;;3.25;2.58;;;24.70;62.90;;;;;;4998763;28;20670;-83
2023/08/19 02:49:31;;;;;;;4.72;2.70;;;24.70;62.90;;;;;;4998613;28;20626;-83
2023/08/19 02:51:58;;;;;;;2.92;2.63;;;24.70;62.80;;;;;;4999754;28;20316;-83
2023/08/19 02:54:25;;;;;;;2.50;2.30;;;24.70;62.80;;;;;;4998438;28;20228;-83
2023/08/19 02:56:53;;;;;;;2.60;2.40;;;24.70;62.60;;;;;;4998928;28;20197;-83
2023/08/19 02:59:21;;;;;;;3.00;2.80;;;24.60;62.60;;;;;;4997958;28;20207;-83
2023/08/19 03:01:48;;;;;;;2.80;2.60;;;24.60;62.60;;;;;;4998435;28;20311;-83
2023/08/19 03:04:15;;;;;;;2.80;2.60;;;24.60;62.40;;;;;;4998160;28;20201;-83
2023/08/19 03:06:44;;;;;;;3.10;2.70;;;24.60;62.20;;;;;;4999107;28;20212;-83
2023/08/19 03:09:11;;;;;;;3.22;3.00;;;24.60;62.20;;;;;;5000920;28;20204;-83
2023/08/19 03:11:39;;;;;;;3.42;2.85;;;24.60;62.00;;;;;;5001462;28;20567;-83
2023/08/19 03:14:07;;;;;;;4.43;2.80;;;24.60;62.00;;;;;;5000336;28;20228;-83
2023/08/19 03:16:34;;;;;;;3.47;2.72;;;24.60;62.00;;;;;;5017782;28;20193;-83
2023/08/19 03:19:01;;;;;;;3.35;2.47;;;24.60;62.20;;;;;;4999268;28;20205;-83
2023/08/19 03:21:28;;;;;;;4.10;2.83;;;24.60;62.10;;;;;;4997680;28;20288;-83
2023/08/19 03:23:57;;;;;;;5.35;2.80;;;24.60;62.30;;;;;;4998090;28;20200;-83
2023/08/19 03:26:24;;;;;;;3.95;2.80;;;24.60;62.10;;;;;;4997996;28;20295;-83
2023/08/19 03:28:51;;;;;;;3.20;3.00;;;24.60;62.10;;;;;;4982823;28;20201;-83
2023/08/19 03:31:19;;;;;;;4.82;3.13;;;24.70;62.00;;;;;;4994055;28;20271;-83
2023/08/19 03:33:46;;;;;;;2.95;2.65;;;24.70;62.10;;;;;;4998269;28;20212;-83
2023/08/19 03:36:13;;;;;;;3.45;2.88;;;24.70;61.80;;;;;;4998571;28;20201;-83
2023/08/19 03:38:41;;;;;;;3.53;3.22;;;24.70;61.70;;;;;;4999056;28;20295;-83
2023/08/19 03:41:11;;;;;;;3.38;3.00;;;24.70;61.80;;;;;;4998644;28;20223;-83
2023/08/19 03:43:38;;;;;;;3.30;3.00;;;24.70;61.50;;;;;;4999239;28;20651;-83
2023/08/19 03:46:05;;;;;;;5.85;3.30;;;24.70;61.30;;;;;;4999438;28;20207;-83
2023/08/19 03:48:33;;;;;;;3.15;2.85;;;24.70;62.00;;;;;;4999046;28;20192;-83
2023/08/19 03:51:00;;;;;;;2.88;2.58;;;24.70;60.90;;;;;;4999323;28;20216;-83
2023/08/19 03:53:27;;;;;;;2.85;2.58;;;24.80;60.80;;;;;;4999869;28;20219;-83
2023/08/19 03:55:54;;;;;;;3.20;2.70;;;24.80;60.70;;;;;;4999695;28;20216;-83
2023/08/19 03:58:24;;;;;;;3.40;3.10;;;24.80;60.70;;;;;;5001593;28;20208;-83
2023/08/19 04:00:51;;;;;;;3.35;2.60;;;24.80;60.70;;;;;;4997122;28;20216;-83
2023/08/19 04:03:26;;;;;;;4.05;2.85;;;24.70;60.70;;;;;;4997221;28;20674;-83
2023/08/19 04:05:53;;;;;;;3.20;2.90;;;24.70;60.80;;;;;;4996721;28;20237;-83
2023/08/19 04:08:20;;;;;;;3.42;2.95;;;24.70;60.70;;;;;;4997007;28;20574;-83
2023/08/19 04:10:47;;;;;;;4.47;2.90;;;24.80;60.80;;;;;;4996946;28;20231;-83
2023/08/19 04:13:16;;;;;;;3.10;2.80;;;24.70;60.70;;;;;;4992673;28;20224;-82
2023/08/19 04:15:44;;;;;;;3.20;2.90;;;24.70;60.60;;;;;;4997801;28;20600;-83
2023/08/19 04:18:12;;;;;;;3.28;3.00;;;24.70;60.70;;;;;;4997010;28;20216;-82
2023/08/19 04:20:39;;;;;;;3.72;3.00;;;24.70;60.70;;;;;;4997147;28;20219;-83
2023/08/19 04:23:06;;;;;;;5.07;3.30;;;24.70;60.70;;;;;;4997890;28;20279;-83
2023/08/19 04:25:34;;;;;;;4.13;2.83;;;24.70;60.70;;;;;;4997547;28;20633;-83
2023/08/19 04:28:02;;;;;;;4.07;2.92;;;24.70;60.70;;;;;;4997592;28;20220;-82
2023/08/19 04:30:30;;;;;;;3.33;3.03;;;24.70;60.50;;;;;;4997947;28;20221;-83
2023/08/19 04:33:00;;;;;;;4.80;3.20;;;24.70;60.50;;;;;;4997763;28;20200;-83
2023/08/19 04:35:29;;;;;;;3.25;2.90;;;24.70;60.80;;;;;;4998160;28;20224;-83
2023/08/19 04:37:56;;;;;;;3.95;3.00;;;24.60;60.70;;;;;;4998268;28;20193;-82
2023/08/19 04:40:23;;;;;;;3.33;2.70;;;24.70;60.80;;;;;;4997768;28;20220;-82
2023/08/19 04:42:50;;;;;;;6.22;3.47;;;24.70;61.10;;;;;;4997880;28;20605;-82
2023/08/19 04:45:18;;;;;;;4.10;3.03;;;24.60;59.90;;;;;;5001275;28;20251;-81
2023/08/19 04:47:48;;;;;;;5.68;3.30;;;24.30;60.40;;;;;;5000762;28;20283;-81
2023/08/19 04:50:19;;;;;;;7.47;3.58;;;24.10;61.00;;;;;;5000881;28;20193;-81
2023/08/19 04:52:46;;;;;;;3.40;3.10;;;24.00;61.40;;;;;;5000374;28;20207;-81
2023/08/19 04:55:14;;;;;;;4.50;3.08;;;23.80;62.30;;;;;;5001100;28;20212;-81
2023/08/19 04:57:42;;;;;;;4.10;3.05;;;23.70;62.70;;;;;;5000356;28;20200;-81
2023/08/19 05:00:12;;;;;;;3.33;2.95;;;23.50;63.00;;;;;;5000358;28;20193;-81
2023/08/19 05:02:39;;;;;;;4.63;3.25;;;23.50;63.50;;;;;;5000306;28;20205;-82
2023/08/19 05:05:08;;;;;;;5.07;3.50;;;23.40;64.00;;;;;;4984392;28;20567;-82
2023/08/19 05:07:38;;;;;;;4.47;3.60;;;23.30;64.40;;;;;;5001559;28;20212;-81
2023/08/19 05:10:06;;;;;;;3.75;3.35;;;23.30;64.40;;;;;;5001554;28;20563;-82
2023/08/19 05:12:33;;;;;;;3.63;3.10;;;23.30;64.60;;;;;;5001000;28;20201;-82
2023/08/19 05:15:00;;;;;;;9.02;3.60;;;23.30;64.60;;;;;;5000776;28;20288;-81
2023/08/19 05:17:28;;;;;;;3.00;2.70;;;23.30;64.90;;;;;;4984572;28;20254;-80
2023/08/19 05:19:55;;;;;;;5.40;3.10;;;23.30;64.90;;;;;;5000365;28;20219;-82
2023/08/19 05:22:22;;;;;;;3.47;2.90;;;23.50;64.50;;;;;;5000803;28;20196;-82
2023/08/19 05:24:51;;;;;;;3.47;3.10;;;23.60;64.10;;;;;;5001229;28;20197;-81
2023/08/19 05:27:18;;;;;;;3.17;2.88;;;23.80;63.50;;;;;;4985500;28;20574;-81
2023/08/19 05:29:45;;;;;;;4.03;3.33;;;23.90;63.30;;;;;;5001941;28;20259;-81
2023/08/19 05:32:12;;;;;;;4.80;3.30;;;24.00;62.80;;;;;;5012375;28;20217;-81
2023/08/19 05:34:41;;;;;;;3.05;2.80;;;24.20;62.40;;;;;;5021348;28;20214;-81
2023/08/19 05:37:09;;;;;;;5.28;3.28;;;24.40;62.00;;;;;;5021304;28;20211;-81
2023/08/19 05:39:35;;;;;;;3.42;3.00;;;24.60;61.70;;;;;;5015068;28;20215;-82
2023/08/19 05:42:05;;;;;;;3.58;3.15;;;24.70;61.10;;;;;;5005009;28;20254;-81
2023/08/19 05:44:32;;;;;;;3.45;3.15;;;24.90;60.80;;;;;;5004498;28;20255;-82
2023/08/19 05:46:59;;;;;;;5.20;3.58;;;25.10;60.30;;;;;;5005339;28;20204;-81
2023/08/19 05:49:27;;;;;;;2.95;2.75;;;25.20;59.90;;;;;;5005046;28;20201;-81
2023/08/19 05:51:54;;;;;;;3.25;2.95;;;25.30;59.60;;;;;;4998071;28;20626;-82
2023/08/19 05:54:21;;;;;;;3.25;2.95;;;25.50;59.20;;;;;;5002178;28;20709;-81
2023/08/19 05:56:49;;;;;;;3.17;2.88;;;25.60;58.90;;;;;;5000879;28;20556;-82
2023/08/19 05:59:18;;;;;;;4.07;3.08;;;25.80;58.70;;;;;;5003372;28;20221;-82
2023/08/19 06:01:44;;;;;;;3.40;3.10;;;25.90;58.30;;;;;;5003052;28;20263;-82
2023/08/19 06:04:11;;;;;;;5.88;3.38;;;26.00;58.00;;;;;;5004149;28;20268;-82
2023/08/19 06:06:38;;;;;;;4.15;2.92;;;26.10;57.80;;;;;;5001175;28;20655;-82
2023/08/19 06:09:05;;;;;;;3.50;3.20;;;26.20;57.50;;;;;;4999209;28;20210;-82
2023/08/19 06:11:32;;;;;;;4.20;3.30;;;26.30;57.30;;;;;;5000862;28;20259;-82
2023/08/19 06:13:59;;;;;;;3.60;2.90;;;26.40;57.10;;;;;;5001979;28;20204;-82
2023/08/19 06:16:28;;;;;;;5.10;3.10;;;26.60;56.80;;;;;;5002240;28;20307;-81
2023/08/19 06:18:55;;;;;;;3.22;2.92;;;26.70;56.50;;;;;;5003153;28;20509;-82
2023/08/19 06:21:22;;;;;;;5.03;2.85;;;26.80;56.20;;;;;;5002941;28;20220;-82
2023/08/19 06:23:50;;;;;;;3.50;2.90;;;26.90;56.00;;;;;;5002496;28;20567;-83
2023/08/19 06:26:16;;;;;;;3.38;3.08;;;27.00;55.80;;;;;;5002506;28;20197;-83
2023/08/19 06:28:44;;;;;;;3.15;2.83;;;27.10;55.50;;;;;;5002328;28;20196;-83
2023/08/19 06:31:11;;;;;;;3.78;3.08;;;27.20;55.50;;;;;;5002257;28;20282;-82
2023/08/19 06:33:41;;;;;;;3.22;2.92;;;27.30;55.20;;;;;;5001755;28;20210;-83
2023/08/19 06:36:08;;;;;;;3.85;2.88;;;27.40;55.10;;;;;;5000917;28;20583;-82
2023/08/19 06:38:35;;;;;;;4.22;3.10;;;27.40;54.80;;;;;;5000961;28;20298;-83
2023/08/19 06:41:03;;;;;;;3.22;2.92;;;27.50;54.70;;;;;;5001996;28;20216;-83
2023/08/19 06:43:31;;;;;;;4.03;3.13;;;27.60;54.50;;;;;;5000587;28;20236;-83
2023/08/19 06:45:59;;;;;;;3.03;2.83;;;27.70;54.40;;;;;;5001207;28;20211;-82
2023/08/19 06:48:27;;;;;;;4.30;2.60;;;27.70;54.20;;;;;;5000830;28;20200;-82
2023/08/19 06:50:57;;;;;;;4.57;3.03;;;27.80;54.00;;;;;;5000675;28;20223;-83
2023/08/19 06:53:24;;;;;;;3.72;2.80;;;27.90;53.90;;;;;;5001012;28;20199;-82
2023/08/19 06:55:57;;;;;;;3.50;2.83;;;27.90;53.80;;;;;;5001122;28;20283;-82
2023/08/19 06:58:25;;;;;;;2.97;2.72;;;28.00;53.70;;;;;;4999586;28;20228;-83
2023/08/19 07:00:56;;;;;;;3.25;2.92;;;28.00;54.20;;;;;;4998560;28;20679;-82
2023/08/19 07:03:23;;;;;;;2.88;2.67;;;28.10;53.50;;;;;;4998613;28;20192;-83
2023/08/19 07:05:50;;;;;;;3.85;3.08;;;28.20;53.40;;;;;;4999279;28;20192;-82
2023/08/19 07:08:19;;;;;;;3.42;2.85;;;28.20;53.20;;;;;;4998875;28;20572;-82
2023/08/19 07:10:46;;;;;;;4.10;2.78;;;28.30;53.10;;;;;;4998726;28;20590;-83
2023/08/19 07:13:14;;;;;;;5.68;2.97;;;28.30;53.00;;;;;;4999475;28;20204;-83
2023/08/19 07:15:42;;;;;;;4.63;3.00;;;28.40;52.80;;;;;;4999523;28;20702;-83
2023/08/19 07:18:08;;;;;;;3.60;3.00;;;28.50;52.70;;;;;;4998780;28;20207;-82
2023/08/19 07:20:36;;;;;;;6.43;3.30;;;28.50;52.60;;;;;;4999914;28;20251;-83
2023/08/19 07:23:03;;;;;;;5.50;3.13;;;28.50;52.40;;;;;;5000662;28;20568;-83
2023/08/19 07:25:32;;;;;;;4.10;3.20;;;28.60;52.40;;;;;;5000851;28;20200;-82
2023/08/19 07:27:59;;;;;;;6.07;3.25;;;28.70;52.30;;;;;;5000984;28;20654;-83
2023/08/19 07:30:27;;;;;;;5.00;3.10;;;28.70;52.10;;;;;;5000557;28;20593;-83
2023/08/19 07:32:55;;;;;;;5.75;3.30;;;28.80;52.10;;;;;;5002892;28;20195;-82
2023/08/19 07:35:22;;;;;;;4.05;3.20;;;28.80;52.10;;;;;;5001727;28;20690;-83
2023/08/19 07:37:49;;;;;;;5.03;3.15;;;28.90;52.00;;;;;;4997573;28;20314;-82
2023/08/19 07:40:16;;;;;;;4.75;2.92;;;28.90;51.80;;;;;;4997427;28;20207;-82
2023/08/19 07:42:45;;;;;;;4.07;3.08;;;28.90;51.70;;;;;;4997072;28;20287;-82
2023/08/19 07:45:12;;;;;;;4.85;3.10;;;29.00;51.50;;;;;;4997320;28;20287;-82
2023/08/19 07:47:40;;;;;;;4.57;3.50;;;29.00;51.50;;;;;;4998023;28;20204;-82
2023/08/19 07:50:08;;;;;;;3.38;2.97;;;29.10;51.40;;;;;;4997486;28;20211;-82
2023/08/19 07:52:35;;;;;;;4.15;3.13;;;29.10;51.40;;;;;;4997392;28;20207;-82
2023/08/19 07:55:02;;;;;;;4.15;3.20;;;29.20;51.50;;;;;;4998182;28;20232;-82
2023/08/19 07:57:29;;;;;;;4.10;3.10;;;29.20;51.40;;;;;;4998405;28;20714;-81
2023/08/19 07:59:57;;;;;;;5.47;3.38;;;29.20;51.40;;;;;;4998057;28;20207;-82
2023/08/19 08:02:25;;;;;;;5.47;3.10;;;29.30;51.40;;;;;;4997914;28;20207;-82
2023/08/19 08:04:52;;;;;;;4.38;3.45;;;29.30;51.30;;;;;;4997795;28;20223;-82
2023/08/19 08:07:20;;;;;;;3.90;3.08;;;29.30;51.20;;;;;;4998096;28;20188;-82
2023/08/19 08:09:47;;;;;;;4.40;3.08;;;29.30;51.20;;;;;;4997268;28;20242;-82
2023/08/19 08:12:14;;;;;;;3.88;3.13;;;29.40;51.20;;;;;;4997722;28;20220;-82
2023/08/19 08:14:41;;;;;;;3.60;3.20;;;29.40;51.20;;;;;;4997463;28;20203;-82
2023/08/19 08:17:10;;;;;;;3.50;2.80;;;29.40;51.20;;;;;;4997535;28;20216;-82
2023/08/19 08:19:38;;;;;;;3.10;2.80;;;29.40;51.10;;;;;;5003189;28;20210;-82
2023/08/19 08:22:06;;;;;;;3.42;3.10;;;29.40;51.10;;;;;;5003676;28;20216;-82
2023/08/19 08:24:33;;;;;;;3.53;2.97;;;29.50;51.10;;;;;;5003795;28;20198;-82
2023/08/19 08:27:01;;;;;;;4.30;3.33;;;29.50;51.60;;;;;;5004544;28;20195;-82
2023/08/19 08:29:28;;;;;;;3.10;2.80;;;29.60;51.00;;;;;;5003464;28;20200;-82
2023/08/19 08:31:55;;;;;;;3.30;3.00;;;29.60;50.90;;;;;;5004875;28;20270;-82
2023/08/19 08:34:23;;;;;;;3.30;3.00;;;29.60;51.40;;;;;;5003546;28;20217;-82
2023/08/19 08:36:50;;;;;;;2.65;2.45;;;29.70;50.80;;;;;;5003604;28;20219;-82
2023/08/19 08:39:17;;;;;;;3.28;2.97;;;29.70;50.70;;;;;;5003823;28;20228;-82
2023/08/19 08:41:44;;;;;;;3.33;2.90;;;29.80;50.60;;;;;;5003286;28;20254;-82
2023/08/19 08:44:11;;;;;;;3.50;3.03;;;29.80;50.50;;;;;;5003400;28;20262;-82
2023/08/19 08:46:38;;;;;;;3.67;2.60;;;29.80;50.40;;;;;;5003288;28;20276;-82
2023/08/19 08:49:05;;;;;;;3.78;2.97;;;29.90;50.40;;;;;;5003572;28;20668;-82
2023/08/19 08:51:33;;;;;;;3.78;2.90;;;29.90;50.40;;;;;;5002880;28;20222;-82
2023/08/19 08:54:01;;;;;;;2.95;2.65;;;29.90;50.40;;;;;;5004111;28;20207;-82
2023/08/19 08:56:27;;;;;;;3.30;2.85;;;29.80;50.30;;;;;;5003374;28;20219;-82
2023/08/19 08:58:55;;;;;;;3.13;2.60;;;29.90;50.30;;;;;;5003394;28;20206;-82
2023/08/19 09:01:23;;;;;;;3.25;2.60;;;29.90;50.40;;;;;;5003795;28;20250;-82
2023/08/19 09:03:51;;;;;;;3.08;2.78;;;29.90;50.30;;;;;;5005257;28;20250;-82
2023/08/19 09:06:18;;;;;;;3.35;2.70;;;30.00;50.30;;;;;;5004498;28;20207;-82
2023/08/19 09:08:51;;;;;;;3.35;2.72;;;30.00;50.10;;;;;;5004129;28;20262;-82
2023/08/19 09:11:21;;;;;;;4.60;3.15;;;30.10;50.10;;;;;;5004955;28;20229;-82
2023/08/19 09:13:50;;;;;;;3.25;2.63;;;30.10;50.00;;;;;;4989767;28;20206;-82
2023/08/19 09:16:17;;;;;;;4.45;2.60;;;30.10;49.90;;;;;;5004579;28;20211;-82
2023/08/19 09:18:44;;;;;;;3.10;2.80;;;30.10;49.80;;;;;;5003746;28;20717;-82
2023/08/19 09:21:11;;;;;;;3.17;2.50;;;30.20;49.80;;;;;;5003974;28;20240;-82
2023/08/19 09:23:39;;;;;;;4.00;2.80;;;30.20;49.60;;;;;;4987745;28;20200;-82
2023/08/19 09:26:09;;;;;;;2.97;2.67;;;30.20;49.60;;;;;;5004850;28;20200;-82
2023/08/19 09:28:36;;;;;;;3.03;2.70;;;30.30;49.60;;;;;;5004010;28;20267;-82
2023/08/19 09:31:07;;;;;;;4.30;2.90;;;30.20;49.40;;;;;;5002986;28;20305;-82
2023/08/19 09:33:35;;;;;;;3.00;2.70;;;30.30;49.50;;;;;;5001192;28;20218;-82
2023/08/19 09:36:02;;;;;;;3.03;2.70;;;30.30;49.50;;;;;;5000854;28;20215;-82
2023/08/19 09:38:30;;;;;;;2.90;2.60;;;30.30;49.40;;;;;;5001050;28;20199;-83
2023/08/19 09:41:02;;;;;;;2.90;2.60;;;30.30;49.40;;;;;;5001031;28;20220;-82
2023/08/19 09:43:30;;;;;;;2.72;2.53;;;30.30;49.40;;;;;;5051474;23;20224;-81
2023/08/19 09:45:58;;;;;;;3.00;2.72;;;30.30;49.40;;;;;;5000412;28;20203;-81
2023/08/19 09:48:25;;;;;;;2.95;2.65;;;30.30;49.40;;;;;;5019727;28;20204;-81
2023/08/19 09:50:52;;;;;;;3.00;2.30;;;30.30;49.40;;;;;;5016933;28;20227;-81
2023/08/19 09:53:19;;;;;;;2.90;2.70;;;30.40;49.50;;;;;;5000650;28;20258;-80
2023/08/19 09:55:46;;;;;;;2.60;2.40;;;30.30;49.40;;;;;;4999902;28;20203;-80
2023/08/19 09:58:13;;;;;;;2.53;2.33;;;30.30;49.40;;;;;;4983785;28;20200;-80
2023/08/19 10:00:42;;;;;;;2.80;2.50;;;30.30;49.50;;;;;;4999642;28;20786;-80
2023/08/19 10:03:09;;;;;;;3.15;2.83;;;30.30;49.50;;;;;;4999767;28;20232;-80
2023/08/19 10:05:39;;;;;;;3.17;2.88;;;30.30;49.50;;;;;;4999390;28;20200;-80
2023/08/19 10:08:07;;;;;;;3.45;2.47;;;30.30;49.60;;;;;;5016886;28;20216;-80
2023/08/19 10:10:37;;;;;;;2.90;2.50;;;30.30;49.60;;;;;;4999128;28;20634;-80
2023/08/19 10:13:04;;;;;;;2.97;2.67;;;30.30;49.60;;;;;;4983806;28;20691;-80
2023/08/19 10:15:33;;;;;;;2.75;2.53;;;30.30;49.70;;;;;;4983136;28;20677;-80
2023/08/19 10:18:02;;;;;;;3.20;2.90;;;30.30;49.70;;;;;;5016589;28;20215;-80
2023/08/19 10:20:30;;;;;;;2.45;2.25;;;30.20;49.70;;;;;;5016776;28;20208;-80
2023/08/19 10:22:59;;;;;;;2.67;2.47;;;30.20;49.80;;;;;;4999434;28;20204;-80
2023/08/19 10:25:26;;;;;;;2.95;2.45;;;30.20;50.00;;;;;;4998872;28;20704;-80
2023/08/19 10:27:54;;;;;;;3.17;2.47;;;30.20;50.00;;;;;;4998656;28;20192;-80
2023/08/19 10:30:31;;;;;;;2.63;2.42;;;30.10;50.00;;;;;;4998748;28;20208;-81
2023/08/19 10:33:06;;;;;;;2.83;2.60;;;30.10;50.10;;;;;;4998920;28;20208;-81
2023/08/19 10:35:57;;;;;;;2.60;2.40;;;30.10;50.20;;;;;;4998682;28;20188;-81
2023/08/19 10:38:24;;;;;;;2.75;2.50;;;30.00;50.30;;;;;;4991594;28;20636;-81
2023/08/19 10:41:01;;;;;;;3.28;2.20;;;30.00;50.30;;;;;;4982605;28;20220;-79
2023/08/19 10:43:29;;;;;;;2.80;2.60;;;30.00;50.50;;;;;;4999066;28;20753;-78
2023/08/19 10:45:59;;;;;;;2.50;2.30;;;29.90;50.50;;;;;;4998575;28;20200;-80
2023/08/19 10:48:34;;;;;;;2.42;2.22;;;29.90;50.70;;;;;;4998745;28;20207;-80
2023/08/19 10:51:00;;;;;;;2.47;2.28;;;29.90;50.80;;;;;;5004546;28;20286;-80
2023/08/19 10:53:28;;;;;;;2.83;2.60;;;29.80;50.90;;;;;;4986280;28;20200;-80
2023/08/19 10:55:55;;;;;;;2.40;2.20;;;29.80;51.00;;;;;;5002307;28;20268;-80
2023/08/19 10:58:22;;;;;;;2.72;2.53;;;29.70;51.10;;;;;;5002067;28;20216;-79
2023/08/19 11:00:50;;;;;;;3.33;2.60;;;29.70;51.20;;;;;;5002844;28;20227;-80
2023/08/19 11:03:16;;;;;;;2.17;2.00;;;29.70;51.30;;;;;;5003038;28;20193;-80
2023/08/19 11:05:49;;;;;;;2.83;2.40;;;29.60;51.50;;;;;;5000317;28;20208;-80
2023/08/19 11:08:16;;;;;;;2.60;2.40;;;29.50;51.60;;;;;;5003453;28;20226;-79
2023/08/19 11:10:45;;;;;;;2.83;2.33;;;29.50;51.70;;;;;;5027322;28;20208;-79
2023/08/19 11:13:12;;;;;;;2.45;2.25;;;29.50;51.80;;;;;;5021779;28;20220;-79
2023/08/19 11:15:40;;;;;;;2.22;2.03;;;29.40;51.90;;;;;;4999157;28;20595;-81
2023/08/19 11:18:07;;;;;;;2.40;2.20;;;29.40;52.10;;;;;;4998854;28;20226;-80
2023/08/19 11:20:34;;;;;;;4.65;2.38;;;29.30;52.10;;;;;;4982155;28;20234;-81
2023/08/19 11:23:02;;;;;;;3.10;2.67;;;29.30;52.30;;;;;;4998129;28;20203;-81
2023/08/19 11:25:36;;;;;;;2.50;2.22;;;29.30;52.40;;;;;;4998347;28;20290;-80
2023/08/19 11:28:04;;;;;;;2.60;2.20;;;29.30;52.40;;;;;;5020567;28;20192;-80
2023/08/19 11:30:31;;;;;;;2.28;2.08;;;29.30;52.40;;;;;;5022026;28;20223;-80
2023/08/19 11:32:58;;;;;;;2.47;2.28;;;29.30;52.40;;;;;;5022057;28;20184;-80
2023/08/19 11:35:28;;;;;;;2.75;2.33;;;29.30;52.40;;;;;;5016360;28;20198;-80
2023/08/19 11:37:55;;;;;;;2.70;2.33;;;29.30;52.40;;;;;;4998722;28;20216;-80
2023/08/19 11:40:32;;;;;;;2.83;2.20;;;29.30;52.40;;;;;;4998552;28;20215;-81
2023/08/19 11:43:09;;;;;;;2.55;2.35;;;29.30;52.40;;;;;;4998042;28;20627;-80
2023/08/19 11:45:37;;;;;;;3.90;2.55;;;29.30;52.40;;;;;;4997708;28;20227;-80
2023/08/19 11:48:05;;;;;;;3.83;2.80;;;29.30;51.80;;;;;;4997441;28;20254;-80
2023/08/19 11:50:34;;;;;;;4.88;3.20;;;29.30;51.20;;;;;;4997605;28;20218;-81
2023/08/19 11:53:02;;;;;;;4.25;2.97;;;29.30;50.60;;;;;;4996727;28;20201;-81
2023/08/19 11:55:31;;;;;;;4.55;2.70;;;29.40;50.20;;;;;;4997520;28;20200;-81
2023/08/19 11:57:58;;;;;;;4.45;2.80;;;29.40;49.50;;;;;;4998031;28;20227;-81
2023/08/19 12:00:26;;;;;;;5.55;3.40;;;29.50;48.80;;;;;;4997068;28;20254;-81
2023/08/19 12:02:53;;;;;;;3.85;2.83;;;29.50;48.20;;;;;;4998039;28;20196;-79
2023/08/19 12:05:23;;;;;;;3.50;2.80;;;29.60;47.90;;;;;;5016134;28;20281;-81
2023/08/19 12:07:50;;;;;;;4.20;2.80;;;29.60;47.50;;;;;;5010088;28;20203;-81
2023/08/19 12:10:18;;;;;;;3.10;2.80;;;29.60;46.90;;;;;;5015132;28;20220;-80
2023/08/19 12:12:59;;;;;;;3.60;3.10;;;29.70;47.20;;;;;;5007704;28;20659;-81
2023/08/19 12:15:26;;;;;;;4.93;2.90;;;29.70;46.60;;;;;;5002472;28;20200;-81
2023/08/19 12:17:53;;;;;;;4.97;2.90;;;29.70;46.50;;;;;;5001531;28;20223;-81
2023/08/19 12:20:20;;;;;;;2.92;2.63;;;29.70;46.30;;;;;;5000321;28;20224;-80
2023/08/19 12:22:47;;;;;;;5.32;2.83;;;29.70;46.50;;;;;;5001115;28;20196;-81
2023/08/19 12:25:15;;;;;;;4.03;3.08;;;29.70;46.60;;;;;;4984798;28;20290;-80
2023/08/19 12:27:41;;;;;;;4.70;3.08;;;29.70;47.10;;;;;;4999941;28;20196;-80
2023/08/19 12:30:11;;;;;;;5.97;2.80;;;29.70;46.60;;;;;;4999971;28;20196;-80
2023/08/19 12:32:38;;;;;;;5.75;3.05;;;29.70;45.20;;;;;;4998253;28;20227;-80
2023/08/19 12:35:07;;;;;;;3.90;2.97;;;29.70;45.40;;;;;;4997557;28;20238;-80
2023/08/19 12:37:34;;;;;;;5.03;3.13;;;29.70;45.80;;;;;;4996939;28;20257;-81
2023/08/19 12:40:03;;;;;;;4.05;2.78;;;29.70;45.80;;;;;;4996519;28;20227;-81
2023/08/19 12:42:30;;;;;;;4.05;3.15;;;29.70;46.20;;;;;;4981076;28;20666;-81
2023/08/19 12:44:57;;;;;;;4.68;2.85;;;29.70;45.40;;;;;;4997018;28;20200;-80
2023/08/19 12:47:25;;;;;;;4.53;2.97;;;29.70;45.60;;;;;;4996573;28;20195;-80
2023/08/19 12:49:53;;;;;;;4.40;3.17;;;29.70;45.80;;;;;;5014677;28;20196;-80
2023/08/19 12:52:20;;;;;;;5.70;3.25;;;29.70;45.80;;;;;;4996949;28;20248;-80